Terminal Aerodrome Forecast
Issued by NWS

Home | Current Version | Previous Version | Graphics & Text | Print | Product List | Glossary On
Versions: 1 2 3 4 5 6 7 8 9 10 11 12 13 14 15 16 17
000
FTUS43 KABR 252100 AAA
TAFATY
TAF AMD
KATY 252144Z 2522/2618 04011KT 2SM -SN BR BKN030 OVC035
     FM260000 01012KT P6SM OVC030
     FM260500 36012KT 2SM -SN OVC025
     FM261200 36012KT P6SM OVC025=

USA.gov is the U.S. government's official web portal to all federal, state and local government web resources and services.